Time;durP1;ratioP1;P1;durP2;ratioP2;P2;SDS_P1;SDS_P2;PMS_P1;PMS_P2;Temp;Humidity;BMP_temperature;BMP_pressure;BME280_temperature;BME280_humidity;BME280_pressure;Samples;Min_cycle;Max_cycle;Signal;HPM_P1;HPM_P2
2022/10/04 00:00:27;;;;;;;5.90;5.68;;;8.90;99.90;;;;;;4880459;29;20033;-77
2022/10/04 00:03:18;;;;;;;15.60;14.80;;;8.90;99.90;;;;;;4884453;29;20048;-77
2022/10/04 00:05:52;;;;;;;0.10;0.10;;;8.80;99.90;;;;;;4931445;29;20047;-77
2022/10/04 00:08:30;;;;;;;0.03;0.03;;;8.80;99.90;;;;;;4974625;28;20184;-77
2022/10/04 00:11:25;;;;;;;0.00;0.00;;;8.70;99.90;;;;;;5035891;28;20038;-77
2022/10/04 00:13:56;;;;;;;0.00;0.00;;;8.70;99.90;;;;;;5034082;28;20030;-77
2022/10/04 00:16:40;;;;;;;0.08;0.08;;;8.50;99.90;;;;;;5050315;28;20052;-77
2022/10/04 00:19:35;;;;;;;0.00;0.00;;;8.50;99.90;;;;;;5101693;28;20024;-77
2022/10/04 00:22:24;;;;;;;0.10;0.10;;;8.50;99.90;;;;;;5100945;28;20020;-78
2022/10/04 00:25:18;;;;;;;0.13;0.13;;;8.00;99.90;;;;;;5000964;28;20052;-77
2022/10/04 00:28:36;;;;;;;0.00;0.00;;;8.50;99.90;;;;;;5023557;28;20061;-78
2022/10/04 00:31:20;;;;;;;0.00;0.00;;;8.50;99.90;;;;;;4967239;28;20136;-78
2022/10/04 00:33:59;;;;;;;0.00;0.00;;;8.40;99.90;;;;;;4951209;29;20092;-78
2022/10/04 00:37:07;;;;;;;0.05;0.05;;;8.30;99.90;;;;;;4968068;29;20039;-77
2022/10/04 00:40:09;;;;;;;0.03;0.03;;;7.50;99.90;;;;;;4968336;28;20059;-77
2022/10/04 00:43:02;;;;;;;0.10;0.10;;;8.30;99.90;;;;;;4966961;29;20027;-77
2022/10/04 00:46:03;;;;;;;0.35;0.35;;;8.20;99.90;;;;;;4913780;29;20551;-77
2022/10/04 00:48:55;;;;;;;21.35;20.05;;;8.20;99.90;;;;;;4888717;29;20032;-77
2022/10/04 00:51:55;;;;;;;0.00;0.00;;;8.20;99.90;;;;;;4871160;29;20046;-77
2022/10/04 00:54:40;;;;;;;0.00;0.00;;;8.20;99.90;;;;;;4869027;29;20290;-77
2022/10/04 00:57:16;;;;;;;0.00;0.00;;;8.20;99.90;;;;;;4867248;29;20041;-77
2022/10/04 01:00:02;;;;;;;0.00;0.00;;;5.80;99.90;;;;;;4867265;29;20049;-77
2022/10/04 01:02:44;;;;;;;0.10;0.10;;;8.10;99.90;;;;;;4849944;29;20050;-77
2022/10/04 01:05:16;;;;;;;0.00;0.00;;;8.10;99.90;;;;;;4865103;29;20182;-77
2022/10/04 01:07:45;;;;;;;0.10;0.10;;;8.00;99.90;;;;;;4881652;29;20045;-77
2022/10/04 01:10:19;;;;;;;0.05;0.05;;;7.60;99.90;;;;;;4880549;29;20073;-77
2022/10/04 01:13:13;;;;;;;0.15;0.15;;;7.90;99.90;;;;;;4880308;29;20055;-77
2022/10/04 01:16:13;;;;;;;0.05;0.05;;;5.30;99.90;;;;;;4880315;29;20037;-77
2022/10/04 01:18:41;;;;;;;0.00;0.00;;;7.90;99.90;;;;;;4880531;29;20037;-77
2022/10/04 01:21:26;;;;;;;0.90;0.90;;;7.90;99.90;;;;;;4880545;29;20049;-77
2022/10/04 01:24:14;;;;;;;0.00;0.00;;;7.90;99.90;;;;;;4922043;29;20040;-77
2022/10/04 01:26:43;;;;;;;0.00;0.00;;;7.90;99.90;;;;;;4991155;28;20037;-77
2022/10/04 01:29:18;;;;;;;0.00;0.00;;;7.90;99.90;;;;;;5060149;28;20036;-77
2022/10/04 01:31:44;;;;;;;0.35;0.35;;;;;;;;;;5072737;28;20057;-77
2022/10/04 01:34:16;;;;;;;0.00;0.00;;;7.90;99.90;;;;;;5090993;28;20035;-77
2022/10/04 01:36:44;;;;;;;0.00;0.00;;;7.80;99.90;;;;;;5093333;28;20020;-77
2022/10/04 01:39:11;;;;;;;0.00;0.00;;;7.80;99.90;;;;;;5093057;28;20019;-77
2022/10/04 01:42:04;;;;;;;0.25;0.25;;;7.80;99.90;;;;;;5092682;28;20020;-77
2022/10/04 01:44:33;;;;;;;0.00;0.00;;;7.60;99.90;;;;;;5008847;28;20034;-77
2022/10/04 01:47:07;;;;;;;0.00;0.00;;;7.50;99.90;;;;;;4992320;28;20065;-77
2022/10/04 01:49:37;;;;;;;0.00;0.00;;;7.50;99.90;;;;;;5011276;28;20542;-77
2022/10/04 01:52:17;;;;;;;0.00;0.00;;;7.60;99.90;;;;;;5010842;28;20076;-77
2022/10/04 01:54:59;;;;;;;0.00;0.00;;;7.50;99.90;;;;;;5013574;28;20057;-77
2022/10/04 01:57:56;;;;;;;0.00;0.00;;;7.50;99.90;;;;;;5028908;28;20094;-77
2022/10/04 02:00:29;;;;;;;0.10;0.10;;;7.60;99.90;;;;;;5027856;28;20057;-77
2022/10/04 02:03:03;;;;;;;0.00;0.00;;;7.60;99.90;;;;;;5028666;28;20061;-77
2022/10/04 02:05:41;;;;;;;0.00;0.00;;;7.60;99.90;;;;;;5028601;28;20013;-77
2022/10/04 02:08:21;;;;;;;0.00;0.00;;;7.60;99.90;;;;;;5000981;28;20032;-77
2022/10/04 02:10:50;;;;;;;0.00;0.00;;;7.50;99.90;;;;;;5011465;28;20098;-77
2022/10/04 02:13:20;;;;;;;0.00;0.00;;;6.90;99.90;;;;;;5009970;28;20041;-77
2022/10/04 02:15:48;;;;;;;0.00;0.00;;;7.50;99.90;;;;;;4993495;28;20366;-77
2022/10/04 02:18:22;;;;;;;0.00;0.00;;;7.50;99.90;;;;;;4994572;28;20041;-77
2022/10/04 02:20:48;;;;;;;;;;;7.40;99.90;;;;;;5013358;28;20024;-77
2022/10/04 02:23:22;;;;;;;0.00;0.00;;;7.40;99.90;;;;;;5093095;28;19969;-77
2022/10/04 02:25:50;;;;;;;0.00;0.00;;;7.40;99.90;;;;;;5092727;28;20021;-77
2022/10/04 02:28:17;;;;;;;0.00;0.00;;;7.40;99.90;;;;;;5092995;28;20028;-77
2022/10/04 02:33:47;;;;;;;0.00;0.00;;;7.40;99.90;;;;;;5093750;28;20062;-77
2022/10/04 02:36:16;;;;;;;0.00;0.00;;;7.50;99.90;;;;;;5087860;28;20108;-77
2022/10/04 02:39:04;;;;;;;1.85;1.75;;;7.40;99.90;;;;;;5093129;28;20055;-77
2022/10/04 02:41:42;;;;;;;0.00;0.00;;;7.80;99.90;;;;;;5093390;28;20024;-77
2022/10/04 02:44:20;;;;;;;0.10;0.10;;;7.40;99.90;;;;;;5096162;28;20031;-77
2022/10/04 02:46:50;;;;;;;0.10;0.10;;;7.80;99.90;;;;;;5078857;28;20024;-77
2022/10/04 02:50:05;;;;;;;0.10;0.10;;;7.80;99.90;;;;;;5080194;28;20050;-77
2022/10/04 02:52:46;;;;;;;;;;;7.70;99.90;;;;;;5097130;28;20028;-77
2022/10/04 02:55:28;;;;;;;0.00;0.00;;;7.80;99.90;;;;;;5100680;28;19908;-78
2022/10/04 02:57:59;;;;;;;0.00;0.00;;;7.70;99.90;;;;;;5090265;28;20097;-77
2022/10/04 03:00:35;;;;;;;0.10;0.10;;;7.80;99.90;;;;;;5093613;28;20016;-77
2022/10/04 03:03:51;;;;;;;0.03;0.03;;;7.70;99.90;;;;;;5082096;28;20031;-77
2022/10/04 03:06:40;;;;;;;0.00;0.00;;;7.90;99.90;;;;;;5008774;28;20030;-78
2022/10/04 03:09:18;;;;;;;0.00;0.00;;;7.90;99.90;;;;;;4976685;28;20027;-77
2022/10/04 03:11:45;;;;;;;0.00;0.00;;;8.10;99.90;;;;;;4954922;28;20492;-77
2022/10/04 03:14:22;;;;;;;0.00;0.00;;;7.90;99.90;;;;;;4969103;28;20521;-77
2022/10/04 03:16:52;;;;;;;0.00;0.00;;;7.70;99.90;;;;;;4952088;28;20520;-77
2022/10/04 03:19:21;;;;;;;0.00;0.00;;;7.70;99.90;;;;;;4968843;28;20110;-77
2022/10/04 03:21:50;;;;;;;0.00;0.00;;;8.10;99.90;;;;;;4968717;28;20033;-77
2022/10/04 03:24:23;;;;;;;0.00;0.00;;;7.60;99.90;;;;;;4968253;28;20188;-77
2022/10/04 03:26:53;;;;;;;0.10;0.10;;;7.60;99.90;;;;;;4973859;28;20039;-77
2022/10/04 03:29:30;;;;;;;2.72;2.55;;;7.60;99.90;;;;;;4976432;28;20143;-77
2022/10/04 03:32:09;;;;;;;0.20;0.20;;;7.60;99.90;;;;;;4974801;28;20481;-76
2022/10/04 03:34:42;;;;;;;0.00;0.00;;;7.60;99.90;;;;;;4975272;28;20023;-77
2022/10/04 03:37:16;;;;;;;0.00;0.00;;;7.50;99.90;;;;;;5003268;28;20032;-77
2022/10/04 03:39:53;;;;;;;0.00;0.00;;;7.50;99.90;;;;;;5065760;28;20464;-77
2022/10/04 03:42:31;;;;;;;0.00;0.00;;;7.50;99.90;;;;;;5078125;28;20032;-76
2022/10/04 03:45:14;;;;;;;0.00;0.00;;;7.60;99.90;;;;;;5043224;28;20036;-76
2022/10/04 03:47:52;;;;;;;0.00;0.00;;;6.90;99.90;;;;;;5079160;28;20062;-77
2022/10/04 03:50:33;;;;;;;0.00;0.00;;;7.40;99.90;;;;;;5074918;28;20363;-76
2022/10/04 03:53:43;;;;;;;0.00;0.00;;;7.50;99.90;;;;;;5095619;28;20032;-76
2022/10/04 03:56:27;;;;;;;0.00;0.00;;;7.50;99.90;;;;;;5092381;28;20047;-77
2022/10/04 03:58:55;;;;;;;0.00;0.00;;;7.40;99.90;;;;;;5090250;28;20020;-77
2022/10/04 04:01:36;;;;;;;0.00;0.00;;;6.10;99.90;;;;;;5090078;28;20388;-76
2022/10/04 04:04:34;;;;;;;0.03;0.03;;;7.20;99.90;;;;;;5072902;28;20522;-77
2022/10/04 04:07:13;;;;;;;0.00;0.00;;;7.30;99.90;;;;;;5074416;28;20104;-77
2022/10/04 04:09:53;;;;;;;0.00;0.00;;;7.40;99.90;;;;;;5094321;28;20023;-77
2022/10/04 04:12:45;;;;;;;0.10;0.10;;;5.00;99.90;;;;;;5100059;28;20032;-77
2022/10/04 04:15:44;;;;;;;0.00;0.00;;;7.40;99.90;;;;;;5109818;28;20012;-77
2022/10/04 04:18:26;;;;;;;0.00;0.00;;;6.80;99.90;;;;;;5095789;28;20046;-77
2022/10/04 04:21:01;;;;;;;0.00;0.00;;;7.40;99.90;;;;;;5077029;28;20501;-76
2022/10/04 04:23:35;;;;;;;0.00;0.00;;;7.50;99.90;;;;;;5092068;28;20443;-77
2022/10/04 04:26:34;;;;;;;0.00;0.00;;;7.50;99.90;;;;;;5090001;28;20050;-77
2022/10/04 04:29:21;;;;;;;0.00;0.00;;;7.50;99.90;;;;;;5066471;28;20366;-77
2022/10/04 04:32:04;;;;;;;0.00;0.00;;;7.60;99.90;;;;;;5090895;28;20051;-77
2022/10/04 04:34:33;;;;;;;0.00;0.00;;;7.60;99.90;;;;;;5092080;28;20020;-76
2022/10/04 04:37:02;;;;;;;2.65;2.55;;;7.70;99.90;;;;;;5091379;28;20478;-77
2022/10/04 04:39:33;;;;;;;0.10;0.10;;;7.60;99.90;;;;;;5071999;28;20083;-76
2022/10/04 04:42:04;;;;;;;0.17;0.17;;;7.70;99.90;;;;;;5090406;28;20297;-76
2022/10/04 04:44:32;;;;;;;2.28;1.08;;;7.70;99.90;;;;;;5092137;28;20055;-77
2022/10/04 04:46:59;;;;;;;1.42;1.42;;;7.70;99.90;;;;;;5073195;28;20024;-76
2022/10/04 04:49:28;;;;;;;0.10;0.10;;;7.60;99.90;;;;;;5072676;28;20024;-77
2022/10/04 04:51:56;;;;;;;0.05;0.05;;;7.60;99.90;;;;;;5090785;28;20027;-76
2022/10/04 04:54:26;;;;;;;3.40;3.30;;;7.50;99.90;;;;;;5055155;28;20060;-77
2022/10/04 04:56:56;;;;;;;0.10;0.10;;;7.40;99.90;;;;;;5092370;28;20012;-77
2022/10/04 04:59:25;;;;;;;0.00;0.00;;;7.40;99.90;;;;;;5053853;28;20329;-77
2022/10/04 05:01:52;;;;;;;0.00;0.00;;;7.30;99.90;;;;;;5089445;28;20024;-76
2022/10/04 05:04:21;;;;;;;0.00;0.00;;;5.30;99.90;;;;;;5092530;28;20072;-76
2022/10/04 05:07:05;;;;;;;0.00;0.00;;;7.30;99.90;;;;;;5090340;28;20514;-77
2022/10/04 05:09:41;;;;;;;0.00;0.00;;;7.30;99.90;;;;;;5069259;28;20533;-77
2022/10/04 05:12:19;;;;;;;0.20;0.20;;;7.30;99.90;;;;;;5089462;28;20020;-76
2022/10/04 05:14:53;;;;;;;0.00;0.00;;;7.20;99.90;;;;;;5070945;28;20441;-77
2022/10/04 05:17:37;;;;;;;0.00;0.00;;;4.50;99.90;;;;;;5086826;28;20027;-77
2022/10/04 05:20:04;;;;;;;0.00;0.00;;;7.30;99.90;;;;;;5089752;28;20093;-77
2022/10/04 05:22:33;;;;;;;0.00;0.00;;;7.40;99.90;;;;;;5089407;28;20047;-76
2022/10/04 05:25:05;;;;;;;0.10;0.10;;;7.40;99.90;;;;;;5088231;28;20114;-77
2022/10/04 05:27:44;;;;;;;0.00;0.00;;;7.50;99.90;;;;;;5071291;28;20465;-77
2022/10/04 05:30:18;;;;;;;0.00;0.00;;;7.50;99.90;;;;;;5068901;28;20097;-77
2022/10/04 05:33:08;;;;;;;0.10;0.10;;;7.40;99.90;;;;;;5087054;28;20020;-77
2022/10/04 05:35:55;;;;;;;0.00;0.00;;;7.50;99.90;;;;;;5069122;28;20036;-77
2022/10/04 05:38:41;;;;;;;0.00;0.00;;;7.70;99.90;;;;;;5071818;28;20031;-77
2022/10/04 05:41:55;;;;;;;0.00;0.00;;;7.80;99.90;;;;;;5069362;28;20023;-77
2022/10/04 05:44:34;;;;;;;0.08;0.08;;;7.80;99.90;;;;;;5004130;28;20064;-76
2022/10/04 05:47:02;;;;;;;0.00;0.00;;;7.90;99.90;;;;;;4987844;28;20038;-77
2022/10/04 05:49:39;;;;;;;0.00;0.00;;;8.10;99.90;;;;;;5005414;28;20467;-77
2022/10/04 05:52:29;;;;;;;0.10;0.10;;;8.20;99.90;;;;;;5006227;28;20041;-76
2022/10/04 05:55:32;;;;;;;0.00;0.00;;;8.20;99.90;;;;;;5006198;28;20057;-77
2022/10/04 05:58:43;;;;;;;0.00;0.00;;;8.30;99.90;;;;;;5004035;28;20053;-77
2022/10/04 06:02:06;;;;;;;0.00;0.00;;;8.40;99.90;;;;;;4947889;29;20400;-77
2022/10/04 06:05:04;;;;;;;0.10;0.10;;;8.50;99.90;;;;;;4905213;29;20714;-77
2022/10/04 06:07:54;;;;;;;0.05;0.05;;;8.70;99.90;;;;;;4909068;29;20036;-77
2022/10/04 06:10:57;;;;;;;0.10;0.10;;;8.80;99.90;;;;;;4906391;29;20295;-77
2022/10/04 06:13:39;;;;;;;0.10;0.10;;;8.90;99.90;;;;;;4910134;29;20063;-77
2022/10/04 06:16:19;;;;;;;0.10;0.10;;;9.00;99.90;;;;;;4907852;29;20038;-77
2022/10/04 06:19:20;;;;;;;0.00;0.00;;;8.80;99.90;;;;;;4908513;29;20036;-77
2022/10/04 06:21:46;;;;;;;0.10;0.10;;;8.70;99.90;;;;;;4940394;28;20030;-77
2022/10/04 06:24:38;;;;;;;0.10;0.10;;;8.50;99.90;;;;;;4965174;28;20445;-78
2022/10/04 06:27:29;;;;;;;1.00;1.00;;;8.80;99.90;;;;;;4965528;28;20050;-77
2022/10/04 06:30:20;;;;;;;0.00;0.00;;;9.00;99.90;;;;;;4967479;28;20031;-76
2022/10/04 06:33:13;;;;;;;1.15;1.15;;;9.20;99.90;;;;;;4955240;28;20043;-77
2022/10/04 06:36:15;;;;;;;2.40;2.28;;;11.90;99.90;;;;;;4961527;28;20045;-77
2022/10/04 06:39:05;;;;;;;0.10;0.10;;;9.50;99.90;;;;;;5037629;28;20031;-78
2022/10/04 06:41:34;;;;;;;0.10;0.10;;;9.70;99.90;;;;;;5033867;28;20645;-76
2022/10/04 06:44:16;;;;;;;0.10;0.10;;;9.80;99.90;;;;;;5052961;28;20036;-77
2022/10/04 06:47:36;;;;;;;0.00;0.00;;;10.40;99.90;;;;;;5051899;28;20025;-77
2022/10/04 06:50:17;;;;;;;0.00;0.00;;;10.40;99.90;;;;;;4990133;28;20023;-77
2022/10/04 06:53:15;;;;;;;0.10;0.10;;;10.00;99.90;;;;;;4974588;28;20034;-77
2022/10/04 06:56:03;;;;;;;0.10;0.10;;;10.00;99.90;;;;;;4975480;28;20448;-76
2022/10/04 06:58:47;;;;;;;0.10;0.10;;;10.20;99.90;;;;;;4977756;28;20106;-79
2022/10/04 07:01:32;;;;;;;0.10;0.10;;;10.40;99.90;;;;;;4995785;28;20034;-77
2022/10/04 07:04:23;;;;;;;0.10;0.10;;;10.40;99.90;;;;;;4997330;28;20096;-75
2022/10/04 07:07:24;;;;;;;0.08;0.08;;;10.50;99.90;;;;;;4988194;28;20061;-78
2022/10/04 07:10:16;;;;;;;0.10;0.10;;;9.60;99.90;;;;;;5009862;28;20349;-76
2022/10/04 07:12:49;;;;;;;0.10;0.10;;;10.70;99.90;;;;;;4929176;29;20048;-77
2022/10/04 07:15:22;;;;;;;0.63;0.63;;;10.80;99.90;;;;;;4931287;29;20063;-77
2022/10/04 07:17:52;;;;;;;0.10;0.10;;;11.80;99.90;;;;;;4930075;29;20093;-79
2022/10/04 07:20:30;;;;;;;0.10;0.10;;;11.10;99.90;;;;;;4928435;29;20035;-76
2022/10/04 07:23:21;;;;;;;0.30;0.30;;;11.00;99.90;;;;;;4935809;28;20114;-76
2022/10/04 07:25:53;;;;;;;0.30;0.30;;;11.10;99.90;;;;;;4986683;28;20457;-79
2022/10/04 07:31:17;;;;;;;0.17;0.17;;;11.30;99.90;;;;;;4986121;28;20037;-77
2022/10/04 07:34:14;;;;;;;0.10;0.10;;;11.50;99.90;;;;;;4990838;28;20030;-76
2022/10/04 07:36:40;;;;;;;0.20;0.20;;;11.60;99.90;;;;;;4972397;28;20046;-82
2022/10/04 07:39:43;;;;;;;0.10;0.10;;;11.70;99.90;;;;;;4970278;28;20037;-77
2022/10/04 07:42:46;;;;;;;0.20;0.20;;;11.70;99.90;;;;;;4929739;29;20044;-77
2022/10/04 07:45:36;;;;;;;0.10;0.10;;;11.80;99.90;;;;;;4853423;29;20105;-76
2022/10/04 07:48:11;;;;;;;0.10;0.10;;;11.90;99.90;;;;;;4851266;29;20032;-82
2022/10/04 07:50:58;;;;;;;0.10;0.10;;;11.90;99.90;;;;;;4910696;29;20043;-84
2022/10/04 07:53:38;;;;;;;0.10;0.10;;;12.10;99.90;;;;;;4924120;29;20127;-81
2022/10/04 07:56:10;;;;;;;2.10;2.00;;;12.20;99.90;;;;;;4922917;29;20115;-77
2022/10/04 07:58:50;;;;;;;0.20;0.20;;;12.30;99.90;;;;;;4922358;28;20228;-78
2022/10/04 08:02:05;;;;;;;0.80;0.80;;;12.50;99.90;;;;;;4921838;29;20242;-78
2022/10/04 08:04:49;;;;;;;;;;;12.50;99.90;;;;;;4847756;29;20201;-77
2022/10/04 08:07:42;;;;;;;0.10;0.10;;;12.60;99.90;;;;;;4845804;29;19912;-80
2022/10/04 08:10:22;;;;;;;0.10;0.10;;;12.90;99.90;;;;;;4846081;29;20044;-90
2022/10/04 08:12:56;;;;;;;0.10;0.10;;;13.30;99.90;;;;;;4846201;29;20068;-80
2022/10/04 08:15:45;;;;;;;0.10;0.10;;;13.40;99.90;;;;;;4845412;29;20045;-84
2022/10/04 08:18:42;;;;;;;0.20;0.20;;;13.30;99.90;;;;;;4870286;29;20044;-77
2022/10/04 08:21:15;;;;;;;1.33;1.27;;;13.20;99.90;;;;;;4888383;29;20312;-81
2022/10/04 08:23:56;;;;;;;0.10;0.10;;;13.20;99.90;;;;;;4921068;29;20350;-84
2022/10/04 08:26:45;;;;;;;0.20;0.20;;;13.20;99.90;;;;;;4920618;29;20032;-78
2022/10/04 08:29:58;;;;;;;0.60;0.60;;;13.20;99.90;;;;;;4921133;29;20036;-79
2022/10/04 08:33:05;;;;;;;0.57;0.57;;;13.10;99.90;;;;;;4920564;29;20050;-81
2022/10/04 08:35:35;;;;;;;0.10;0.10;;;13.20;99.90;;;;;;4920060;29;20100;-83
2022/10/04 08:38:21;;;;;;;0.10;0.10;;;13.30;99.90;;;;;;4919920;29;20106;-81
2022/10/04 08:41:11;;;;;;;0.10;0.10;;;13.40;99.90;;;;;;4930429;28;20053;-90
2022/10/04 08:43:55;;;;;;;0.10;0.10;;;13.40;99.90;;;;;;4997786;28;20594;-79
2022/10/04 08:46:45;;;;;;;0.10;0.10;;;13.30;99.90;;;;;;4999043;28;20022;-80
2022/10/04 08:49:28;;;;;;;0.10;0.10;;;13.30;99.90;;;;;;4999015;28;20548;-79
2022/10/04 08:51:53;;;;;;;0.10;0.10;;;13.40;99.90;;;;;;4981849;28;20176;-83
2022/10/04 08:54:34;;;;;;;0.10;0.10;;;13.30;99.90;;;;;;4997401;28;20034;-79
2022/10/04 08:57:18;;;;;;;0.20;0.20;;;13.30;99.90;;;;;;4997145;28;20107;-78
2022/10/04 08:59:45;;;;;;;0.10;0.10;;;13.50;99.90;;;;;;4982374;28;20022;-85
2022/10/04 09:02:37;;;;;;;1.00;1.00;;;14.00;99.90;;;;;;4981413;28;20030;-82
2022/10/04 09:05:34;;;;;;;0.10;0.10;;;14.10;99.90;;;;;;4997875;28;20269;-86
2022/10/04 09:08:48;;;;;;;0.10;0.10;;;14.30;99.90;;;;;;5005815;28;20038;-79
2022/10/04 09:11:44;;;;;;;0.25;0.25;;;14.60;99.90;;;;;;4997300;28;20037;-78
2022/10/04 09:14:49;;;;;;;0.10;0.10;;;15.00;99.90;;;;;;4980512;28;20613;-82
2022/10/04 09:17:29;;;;;;;0.10;0.10;;;14.80;99.90;;;;;;4997853;28;20026;-77
2022/10/04 09:20:08;;;;;;;0.10;0.10;;;14.80;99.90;;;;;;4981089;28;20041;-78
2022/10/04 09:22:51;;;;;;;0.10;0.10;;;14.70;99.90;;;;;;4981182;28;20080;-77
2022/10/04 09:25:26;;;;;;;0.10;0.10;;;14.40;99.90;;;;;;4999176;28;20030;-79
2022/10/04 09:28:14;;;;;;;0.10;0.10;;;14.30;99.90;;;;;;4998707;28;20069;-77
2022/10/04 09:30:39;;;;;;;0.10;0.10;;;14.30;99.90;;;;;;4981833;28;20069;-80
2022/10/04 09:33:24;;;;;;;0.10;0.10;;;14.20;99.90;;;;;;4997436;28;20049;-77
2022/10/04 09:36:21;;;;;;;0.10;0.10;;;14.10;99.90;;;;;;4980407;28;20040;-77
2022/10/04 09:38:58;;;;;;;0.20;0.20;;;14.10;99.90;;;;;;4998288;28;20030;-85
2022/10/04 09:41:33;;;;;;;0.75;0.75;;;14.90;99.90;;;;;;4998375;28;20065;-79
2022/10/04 09:44:44;;;;;;;0.10;0.10;;;14.10;99.90;;;;;;4998496;28;20105;-80
2022/10/04 09:47:40;;;;;;;0.10;0.10;;;14.10;99.90;;;;;;4994948;28;20216;-76
2022/10/04 09:50:25;;;;;;;0.20;0.20;;;14.10;99.90;;;;;;5059225;28;20025;-82
2022/10/04 09:53:22;;;;;;;0.10;0.10;;;14.30;99.90;;;;;;5058122;28;20505;-77
2022/10/04 09:56:18;;;;;;;0.10;0.10;;;14.30;99.90;;;;;;5059968;28;20090;-78
2022/10/04 09:59:02;;;;;;;2.05;1.65;;;14.50;99.90;;;;;;5059584;28;20016;-85
2022/10/04 10:01:48;;;;;;;0.47;0.47;;;14.50;99.90;;;;;;5060985;28;20410;-79
2022/10/04 10:04:35;;;;;;;2.28;2.13;;;14.50;99.90;;;;;;5059710;28;20343;-77
2022/10/04 10:07:19;;;;;;;0.45;0.45;;;15.60;99.90;;;;;;5057426;28;20016;-78
2022/10/04 10:16:24;;;;;;;0.35;0.35;;;14.90;99.90;;;;;;4998063;28;20611;-81
2022/10/04 10:18:54;;;;;;;;;;;14.50;99.90;;;;;;5000061;28;20270;-77
2022/10/04 10:21:20;;;;;;;0.10;0.10;;;15.30;99.90;;;;;;5000071;28;19909;-78
2022/10/04 10:24:23;;;;;;;0.30;0.30;;;15.30;99.90;;;;;;4984635;28;20038;-78
2022/10/04 10:27:04;;;;;;;0.10;0.10;;;15.30;99.90;;;;;;5005083;28;20412;-77
2022/10/04 10:30:04;;;;;;;0.20;0.20;;;15.30;99.90;;;;;;4986649;28;20140;-78
2022/10/04 10:32:42;;;;;;;0.10;0.10;;;15.30;99.90;;;;;;4985306;28;20034;-78
2022/10/04 10:35:45;;;;;;;0.10;0.10;;;15.30;99.90;;;;;;4984961;28;20402;-81
2022/10/04 10:38:23;;;;;;;0.20;0.20;;;15.70;99.90;;;;;;5000425;28;20041;-79
2022/10/04 10:41:10;;;;;;;0.10;0.10;;;15.10;99.90;;;;;;4982138;28;20160;-77
2022/10/04 10:43:57;;;;;;;2.22;2.15;;;15.00;99.90;;;;;;4997654;28;20137;-77
2022/10/04 10:46:28;;;;;;;1.23;1.17;;;15.70;99.90;;;;;;4998213;28;20026;-86
2022/10/04 10:49:18;;;;;;;0.10;0.10;;;15.80;99.90;;;;;;5002806;28;20321;-83
2022/10/04 10:52:29;;;;;;;0.10;0.10;;;16.30;99.20;;;;;;5059610;28;20025;-78
2022/10/04 10:55:06;;;;;;;0.10;0.10;;;16.60;98.10;;;;;;5059260;28;20037;-80
2022/10/04 10:58:06;;;;;;;1.00;1.00;;;17.10;97.40;;;;;;5060647;28;20032;-77
2022/10/04 11:01:09;;;;;;;0.10;0.10;;;16.80;96.40;;;;;;5060056;28;20059;-78
2022/10/04 11:04:03;;;;;;;0.10;0.10;;;16.60;96.60;;;;;;4996874;28;20033;-79
2022/10/04 11:07:01;;;;;;;0.10;0.10;;;16.40;96.90;;;;;;4999774;28;20331;-81
2022/10/04 11:09:31;;;;;;;0.10;0.10;;;16.10;96.80;;;;;;5001293;28;20026;-82
2022/10/04 11:12:00;;;;;;;0.10;0.10;;;15.80;96.80;;;;;;5000963;28;20029;-77
2022/10/04 11:15:15;;;;;;;0.10;0.10;;;16.10;96.80;;;;;;5001653;28;20433;-79
2022/10/04 11:17:58;;;;;;;2.15;1.85;;;15.80;96.40;;;;;;4989033;28;20428;-80
2022/10/04 11:20:51;;;;;;;0.10;0.10;;;15.70;97.10;;;;;;5000648;28;20061;-85
2022/10/04 11:23:26;;;;;;;0.10;0.10;;;15.00;97.50;;;;;;4985417;28;20484;-79
2022/10/04 11:26:36;;;;;;;0.30;0.30;;;15.40;98.10;;;;;;4984000;28;20034;-78
2022/10/04 11:29:31;;;;;;;0.10;0.10;;;15.40;97.80;;;;;;5002208;28;20622;-77
2022/10/04 11:32:00;;;;;;;0.10;0.10;;;15.40;97.60;;;;;;5001634;28;20560;-78
2022/10/04 11:35:05;;;;;;;0.20;0.20;;;15.40;98.00;;;;;;5002172;28;20061;-87
2022/10/04 11:37:48;;;;;;;0.10;0.10;;;15.50;97.90;;;;;;4983752;28;20191;-79
2022/10/04 11:40:32;;;;;;;0.00;0.00;;;15.50;98.30;;;;;;5016172;28;20033;-86
2022/10/04 11:43:18;;;;;;;0.20;0.20;;;15.40;99.00;;;;;;5044354;28;20039;-78
2022/10/04 11:46:16;;;;;;;0.10;0.10;;;15.30;99.10;;;;;;5048249;28;20017;-86
2022/10/04 11:49:00;;;;;;;0.22;0.22;;;15.30;99.00;;;;;;5043495;28;20029;-79
2022/10/04 11:51:55;;;;;;;;;;;15.50;98.60;;;;;;5045525;28;20036;-78
2022/10/04 11:54:39;;;;;;;;;;;15.60;98.10;;;;;;5043632;28;20086;-79
2022/10/04 11:57:14;;;;;;;;;;;15.90;98.30;;;;;;5044736;28;19905;-83
2022/10/04 12:00:05;;;;;;;0.10;0.10;;;16.30;97.80;;;;;;5044823;28;19913;-77
2022/10/04 12:03:09;;;;;;;0.25;0.25;;;16.30;97.80;;;;;;5042296;28;20021;-78
2022/10/04 12:06:12;;;;;;;0.65;0.65;;;16.30;96.70;;;;;;5043834;28;20357;-84
2022/10/04 12:09:03;;;;;;;0.22;0.22;;;16.30;96.40;;;;;;5043000;28;20033;-78
2022/10/04 12:15:07;;;;;;;0.20;0.20;;;15.70;97.10;;;;;;5043202;28;20089;-78
2022/10/04 12:18:04;;;;;;;0.10;0.10;;;15.50;97.60;;;;;;5041102;28;20052;-79
2022/10/04 12:21:00;;;;;;;0.10;0.10;;;15.20;97.70;;;;;;5041849;28;20025;-78
2022/10/04 12:23:49;;;;;;;0.20;0.20;;;15.20;98.00;;;;;;5067235;28;20060;-77
2022/10/04 12:26:18;;;;;;;0.10;0.10;;;15.30;98.20;;;;;;5082102;28;20016;-78
2022/10/04 12:28:49;;;;;;;0.10;0.10;;;15.30;98.00;;;;;;5065029;28;20649;-79
2022/10/04 12:31:26;;;;;;;0.52;0.52;;;15.40;97.40;;;;;;5065754;28;20414;-78
2022/10/04 12:34:18;;;;;;;0.10;0.10;;;15.40;97.50;;;;;;5064270;28;20032;-78
2022/10/04 12:36:58;;;;;;;0.15;0.15;;;15.50;97.40;;;;;;5081420;28;20112;-79
2022/10/04 12:40:06;;;;;;;0.10;0.10;;;15.50;97.00;;;;;;5081891;28;20063;-77
2022/10/04 12:43:08;;;;;;;0.10;0.10;;;15.50;96.80;;;;;;5084251;28;20309;-83
2022/10/04 12:45:51;;;;;;;0.38;0.38;;;15.50;97.00;;;;;;4983765;28;20117;-77
2022/10/04 12:48:48;;;;;;;0.20;0.20;;;15.40;98.00;;;;;;4998945;28;20216;-77
2022/10/04 12:51:14;;;;;;;0.10;0.10;;;17.50;99.40;;;;;;4998536;28;20042;-80
2022/10/04 12:53:56;;;;;;;0.10;0.10;;;15.40;99.90;;;;;;4997799;28;20034;-78
2022/10/04 12:56:49;;;;;;;0.20;0.20;;;15.70;99.80;;;;;;4998307;28;20061;-77
2022/10/04 12:59:20;;;;;;;0.10;0.10;;;16.00;98.70;;;;;;4998548;28;20022;-77
2022/10/04 13:02:20;;;;;;;0.10;0.10;;;16.00;97.30;;;;;;4998186;28;20030;-80
2022/10/04 13:05:19;;;;;;;0.10;0.10;;;17.10;96.50;;;;;;4977065;28;20268;-84
2022/10/04 13:08:08;;;;;;;0.10;0.10;;;19.70;95.10;;;;;;4983482;28;20312;-77
2022/10/04 13:10:43;;;;;;;0.10;0.10;;;18.40;93.70;;;;;;4982686;28;20030;-78
2022/10/04 13:13:28;;;;;;;0.10;0.10;;;19.10;93.20;;;;;;4980726;28;20038;-78
2022/10/04 13:16:12;;;;;;;0.10;0.10;;;19.70;90.40;;;;;;4997616;28;20291;-81
2022/10/04 13:18:58;;;;;;;0.10;0.10;;;20.30;86.00;;;;;;4997727;28;20109;-82
2022/10/04 13:21:53;;;;;;;0.45;0.45;;;20.20;83.20;;;;;;5002592;28;20721;-78
2022/10/04 13:25:10;;;;;;;0.55;0.52;;;20.30;82.40;;;;;;5062457;28;20108;-79
2022/10/04 13:27:51;;;;;;;0.10;0.10;;;20.20;80.70;;;;;;4997357;28;20053;-80
2022/10/04 13:30:42;;;;;;;0.10;0.10;;;20.30;79.60;;;;;;4998989;28;20194;-78
2022/10/04 13:33:25;;;;;;;0.10;0.10;;;19.80;80.80;;;;;;5000023;28;20379;-78
2022/10/04 13:36:15;;;;;;;0.10;0.10;;;20.10;79.70;;;;;;4997862;28;20018;-79
2022/10/04 13:39:22;;;;;;;0.10;0.10;;;20.20;79.30;;;;;;4979760;28;20275;-79
2022/10/04 13:42:07;;;;;;;0.10;0.10;;;21.00;78.30;;;;;;4979889;28;20034;-80
2022/10/04 13:45:00;;;;;;;1.27;1.00;;;21.10;75.50;;;;;;4981217;28;20091;-84
2022/10/04 13:47:50;;;;;;;0.10;0.10;;;21.20;74.70;;;;;;4981536;28;20026;-86
2022/10/04 13:50:21;;;;;;;0.10;0.10;;;21.80;72.50;;;;;;4982322;28;20360;-80
2022/10/04 13:59:11;;;;;;;0.10;0.10;;;22.60;69.50;;;;;;5003498;28;20239;-78
2022/10/04 14:01:47;;;;;;;0.00;0.00;;;22.80;69.10;;;;;;5003364;28;20026;-79
2022/10/04 14:04:47;;;;;;;0.10;0.10;;;22.40;68.10;;;;;;5058247;28;20775;-82
2022/10/04 14:07:46;;;;;;;0.10;0.10;;;22.30;68.40;;;;;;5067968;28;20055;-77
2022/10/04 14:10:40;;;;;;;1.55;1.45;;;22.80;67.50;;;;;;5064814;28;20108;-81
2022/10/04 14:13:41;;;;;;;0.25;0.25;;;23.30;67.00;;;;;;5062786;28;20032;-81
2022/10/04 14:16:16;;;;;;;0.10;0.10;;;23.80;66.10;;;;;;5080701;28;20019;-87
2022/10/04 14:19:19;;;;;;;0.55;0.40;;;24.30;63.90;;;;;;5061462;28;20190;-77
2022/10/04 14:22:04;;;;;;;1.27;1.17;;;24.10;62.40;;;;;;5079992;28;20069;-79
2022/10/04 14:24:52;;;;;;;0.22;0.22;;;24.10;62.40;;;;;;5061877;28;20437;-86
2022/10/04 14:27:24;;;;;;;0.10;0.10;;;24.50;62.10;;;;;;5060999;28;20105;-78
2022/10/04 14:30:11;;;;;;;0.40;0.40;;;22.80;59.50;;;;;;5061950;28;20020;-78
2022/10/04 14:33:08;;;;;;;0.00;0.00;;;23.70;59.60;;;;;;5061711;28;20047;-78
2022/10/04 14:35:40;;;;;;;0.03;0.03;;;22.60;61.40;;;;;;5080226;28;20028;-78
2022/10/04 14:38:45;;;;;;;0.00;0.00;;;21.90;63.70;;;;;;5085240;28;20031;-81
2022/10/04 14:41:51;;;;;;;0.00;0.00;;;22.20;64.40;;;;;;4997279;28;20679;-77
2022/10/04 14:44:42;;;;;;;1.48;1.38;;;22.40;62.80;;;;;;4999885;28;20130;-80